sensor_id;sensor_type;location;lat;lon;timestamp;P1;durP1;ratioP1;P2;durP2;ratioP2
13693;SDS011;6919;52.344;14.518;2023-08-12T00:01:37;3.63;;;2.27;;
13693;SDS011;6919;52.344;14.518;2023-08-12T00:04:06;3.67;;;1.97;;
13693;SDS011;6919;52.344;14.518;2023-08-12T00:06:35;2.83;;;2.10;;
13693;SDS011;6919;52.344;14.518;2023-08-12T00:09:04;2.10;;;1.90;;
13693;SDS011;6919;52.344;14.518;2023-08-12T00:11:34;2.83;;;2.20;;
13693;SDS011;6919;52.344;14.518;2023-08-12T00:14:02;2.07;;;1.87;;
13693;SDS011;6919;52.344;14.518;2023-08-12T00:16:31;2.13;;;1.93;;
13693;SDS011;6919;52.344;14.518;2023-08-12T00:19:00;2.50;;;2.17;;
13693;SDS011;6919;52.344;14.518;2023-08-12T00:21:28;2.93;;;2.17;;
13693;SDS011;6919;52.344;14.518;2023-08-12T00:23:58;3.23;;;2.00;;
13693;SDS011;6919;52.344;14.518;2023-08-12T00:26:26;2.33;;;2.00;;
13693;SDS011;6919;52.344;14.518;2023-08-12T00:28:54;2.93;;;2.30;;
13693;SDS011;6919;52.344;14.518;2023-08-12T00:31:23;4.37;;;2.30;;
13693;SDS011;6919;52.344;14.518;2023-08-12T00:33:51;2.73;;;2.27;;
13693;SDS011;6919;52.344;14.518;2023-08-12T00:36:19;2.23;;;2.03;;
13693;SDS011;6919;52.344;14.518;2023-08-12T00:38:47;3.07;;;2.20;;
13693;SDS011;6919;52.344;14.518;2023-08-12T00:41:17;2.83;;;2.20;;
13693;SDS011;6919;52.344;14.518;2023-08-12T00:43:45;2.70;;;2.00;;
13693;SDS011;6919;52.344;14.518;2023-08-12T00:46:14;3.77;;;2.37;;
13693;SDS011;6919;52.344;14.518;2023-08-12T00:48:42;2.60;;;2.10;;
13693;SDS011;6919;52.344;14.518;2023-08-12T00:51:11;4.50;;;2.10;;
13693;SDS011;6919;52.344;14.518;2023-08-12T00:53:39;2.77;;;2.20;;
13693;SDS011;6919;52.344;14.518;2023-08-12T00:56:08;3.40;;;2.10;;
13693;SDS011;6919;52.344;14.518;2023-08-12T00:58:38;3.87;;;2.10;;
13693;SDS011;6919;52.344;14.518;2023-08-12T01:01:08;3.50;;;2.40;;
13693;SDS011;6919;52.344;14.518;2023-08-12T01:03:37;3.57;;;2.40;;
13693;SDS011;6919;52.344;14.518;2023-08-12T01:06:06;3.00;;;2.20;;
13693;SDS011;6919;52.344;14.518;2023-08-12T01:08:34;2.87;;;2.10;;
13693;SDS011;6919;52.344;14.518;2023-08-12T01:11:04;4.20;;;2.30;;
13693;SDS011;6919;52.344;14.518;2023-08-12T01:13:44;3.23;;;2.23;;
13693;SDS011;6919;52.344;14.518;2023-08-12T01:16:34;3.53;;;2.33;;
13693;SDS011;6919;52.344;14.518;2023-08-12T01:19:10;2.80;;;2.47;;
13693;SDS011;6919;52.344;14.518;2023-08-12T01:21:48;2.90;;;2.10;;
13693;SDS011;6919;52.344;14.518;2023-08-12T01:24:24;6.37;;;2.10;;
13693;SDS011;6919;52.344;14.518;2023-08-12T01:26:52;3.43;;;2.30;;
13693;SDS011;6919;52.344;14.518;2023-08-12T01:29:21;3.47;;;2.30;;
13693;SDS011;6919;52.344;14.518;2023-08-12T01:31:51;8.17;;;2.70;;
13693;SDS011;6919;52.344;14.518;2023-08-12T01:34:28;2.77;;;2.37;;
13693;SDS011;6919;52.344;14.518;2023-08-12T01:37:10;4.13;;;2.60;;
13693;SDS011;6919;52.344;14.518;2023-08-12T01:39:46;3.30;;;2.60;;
13693;SDS011;6919;52.344;14.518;2023-08-12T01:42:17;3.00;;;2.23;;
13693;SDS011;6919;52.344;14.518;2023-08-12T01:44:46;2.50;;;2.27;;
13693;SDS011;6919;52.344;14.518;2023-08-12T01:47:17;3.00;;;2.10;;
13693;SDS011;6919;52.344;14.518;2023-08-12T01:49:45;2.70;;;2.13;;
13693;SDS011;6919;52.344;14.518;2023-08-12T01:52:13;3.03;;;2.30;;
13693;SDS011;6919;52.344;14.518;2023-08-12T01:54:42;2.80;;;2.43;;
13693;SDS011;6919;52.344;14.518;2023-08-12T01:57:12;3.23;;;2.30;;
13693;SDS011;6919;52.344;14.518;2023-08-12T01:59:40;3.93;;;2.40;;
13693;SDS011;6919;52.344;14.518;2023-08-12T02:02:10;3.17;;;2.50;;
13693;SDS011;6919;52.344;14.518;2023-08-12T02:04:39;3.23;;;2.43;;
13693;SDS011;6919;52.344;14.518;2023-08-12T02:07:09;4.60;;;2.40;;
13693;SDS011;6919;52.344;14.518;2023-08-12T02:09:38;2.20;;;2.00;;
13693;SDS011;6919;52.344;14.518;2023-08-12T02:12:06;3.77;;;2.90;;
13693;SDS011;6919;52.344;14.518;2023-08-12T02:14:36;2.77;;;2.53;;
13693;SDS011;6919;52.344;14.518;2023-08-12T02:17:04;4.87;;;2.97;;
13693;SDS011;6919;52.344;14.518;2023-08-12T02:19:33;2.90;;;2.47;;
13693;SDS011;6919;52.344;14.518;2023-08-12T02:22:02;4.43;;;2.50;;
13693;SDS011;6919;52.344;14.518;2023-08-12T02:24:31;3.03;;;2.27;;
13693;SDS011;6919;52.344;14.518;2023-08-12T02:26:59;2.73;;;2.40;;
13693;SDS011;6919;52.344;14.518;2023-08-12T02:29:27;2.27;;;2.07;;
13693;SDS011;6919;52.344;14.518;2023-08-12T02:31:57;4.80;;;2.50;;
13693;SDS011;6919;52.344;14.518;2023-08-12T02:34:26;4.43;;;2.60;;
13693;SDS011;6919;52.344;14.518;2023-08-12T02:36:54;4.37;;;2.83;;
13693;SDS011;6919;52.344;14.518;2023-08-12T02:39:22;2.97;;;2.37;;
13693;SDS011;6919;52.344;14.518;2023-08-12T02:41:50;3.43;;;2.80;;
13693;SDS011;6919;52.344;14.518;2023-08-12T02:44:19;3.37;;;2.47;;
13693;SDS011;6919;52.344;14.518;2023-08-12T02:46:47;3.03;;;2.60;;
13693;SDS011;6919;52.344;14.518;2023-08-12T02:49:16;2.80;;;2.23;;
13693;SDS011;6919;52.344;14.518;2023-08-12T02:51:45;3.10;;;2.57;;
13693;SDS011;6919;52.344;14.518;2023-08-12T02:54:12;3.83;;;2.70;;
13693;SDS011;6919;52.344;14.518;2023-08-12T02:56:40;2.17;;;1.97;;
13693;SDS011;6919;52.344;14.518;2023-08-12T02:59:10;3.80;;;2.17;;
13693;SDS011;6919;52.344;14.518;2023-08-12T03:01:40;2.13;;;1.93;;
13693;SDS011;6919;52.344;14.518;2023-08-12T03:04:09;3.17;;;2.33;;
13693;SDS011;6919;52.344;14.518;2023-08-12T03:06:39;2.87;;;2.17;;
13693;SDS011;6919;52.344;14.518;2023-08-12T03:09:07;4.33;;;2.27;;
13693;SDS011;6919;52.344;14.518;2023-08-12T03:11:35;2.43;;;2.23;;
13693;SDS011;6919;52.344;14.518;2023-08-12T03:14:03;3.80;;;2.30;;
13693;SDS011;6919;52.344;14.518;2023-08-12T03:16:32;3.07;;;2.50;;
13693;SDS011;6919;52.344;14.518;2023-08-12T03:19:00;3.40;;;2.40;;
13693;SDS011;6919;52.344;14.518;2023-08-12T03:21:28;3.13;;;2.73;;
13693;SDS011;6919;52.344;14.518;2023-08-12T03:23:58;2.57;;;2.27;;
13693;SDS011;6919;52.344;14.518;2023-08-12T03:26:26;2.40;;;2.13;;
13693;SDS011;6919;52.344;14.518;2023-08-12T03:28:54;2.67;;;2.20;;
13693;SDS011;6919;52.344;14.518;2023-08-12T03:31:22;2.73;;;2.40;;
13693;SDS011;6919;52.344;14.518;2023-08-12T03:33:51;2.67;;;2.10;;
13693;SDS011;6919;52.344;14.518;2023-08-12T03:36:19;2.93;;;2.33;;
13693;SDS011;6919;52.344;14.518;2023-08-12T03:38:48;3.13;;;2.77;;
13693;SDS011;6919;52.344;14.518;2023-08-12T03:41:17;7.13;;;2.37;;
13693;SDS011;6919;52.344;14.518;2023-08-12T03:43:45;2.77;;;2.20;;
13693;SDS011;6919;52.344;14.518;2023-08-12T03:46:14;2.93;;;2.30;;
13693;SDS011;6919;52.344;14.518;2023-08-12T03:48:44;2.57;;;2.37;;
13693;SDS011;6919;52.344;14.518;2023-08-12T03:51:12;3.37;;;2.50;;
13693;SDS011;6919;52.344;14.518;2023-08-12T03:53:41;2.53;;;1.93;;
13693;SDS011;6919;52.344;14.518;2023-08-12T03:56:09;3.30;;;2.40;;
13693;SDS011;6919;52.344;14.518;2023-08-12T03:58:42;3.47;;;2.73;;
13693;SDS011;6919;52.344;14.518;2023-08-12T04:01:11;3.37;;;2.57;;
13693;SDS011;6919;52.344;14.518;2023-08-12T04:03:39;2.80;;;2.43;;
13693;SDS011;6919;52.344;14.518;2023-08-12T04:06:07;2.43;;;2.23;;
13693;SDS011;6919;52.344;14.518;2023-08-12T04:08:36;6.97;;;2.73;;
13693;SDS011;6919;52.344;14.518;2023-08-12T04:11:04;3.17;;;2.60;;
13693;SDS011;6919;52.344;14.518;2023-08-12T04:13:32;5.03;;;2.57;;
13693;SDS011;6919;52.344;14.518;2023-08-12T04:16:02;2.97;;;2.30;;
13693;SDS011;6919;52.344;14.518;2023-08-12T04:18:31;4.23;;;2.47;;
13693;SDS011;6919;52.344;14.518;2023-08-12T04:20:59;4.90;;;2.50;;
13693;SDS011;6919;52.344;14.518;2023-08-12T04:23:27;5.20;;;2.57;;
13693;SDS011;6919;52.344;14.518;2023-08-12T04:25:56;6.60;;;2.63;;
13693;SDS011;6919;52.344;14.518;2023-08-12T04:28:24;4.17;;;2.30;;
13693;SDS011;6919;52.344;14.518;2023-08-12T04:30:52;4.00;;;2.50;;
13693;SDS011;6919;52.344;14.518;2023-08-12T04:33:22;5.10;;;2.70;;
13693;SDS011;6919;52.344;14.518;2023-08-12T04:35:52;6.77;;;2.17;;
13693;SDS011;6919;52.344;14.518;2023-08-12T04:38:22;3.77;;;2.60;;
13693;SDS011;6919;52.344;14.518;2023-08-12T04:40:52;2.50;;;2.20;;
13693;SDS011;6919;52.344;14.518;2023-08-12T04:43:20;3.47;;;2.53;;
13693;SDS011;6919;52.344;14.518;2023-08-12T04:45:49;3.97;;;2.63;;
13693;SDS011;6919;52.344;14.518;2023-08-12T04:48:18;3.33;;;2.33;;
13693;SDS011;6919;52.344;14.518;2023-08-12T04:50:47;3.53;;;2.17;;
13693;SDS011;6919;52.344;14.518;2023-08-12T04:53:15;2.43;;;2.23;;
13693;SDS011;6919;52.344;14.518;2023-08-12T04:55:44;3.53;;;2.40;;
13693;SDS011;6919;52.344;14.518;2023-08-12T04:58:12;3.00;;;2.30;;
13693;SDS011;6919;52.344;14.518;2023-08-12T05:00:41;6.60;;;2.93;;
13693;SDS011;6919;52.344;14.518;2023-08-12T05:03:09;3.30;;;2.30;;
13693;SDS011;6919;52.344;14.518;2023-08-12T05:05:38;3.17;;;2.33;;
13693;SDS011;6919;52.344;14.518;2023-08-12T05:08:08;2.97;;;2.27;;
13693;SDS011;6919;52.344;14.518;2023-08-12T05:10:36;5.70;;;2.37;;
13693;SDS011;6919;52.344;14.518;2023-08-12T05:13:04;3.50;;;2.30;;
13693;SDS011;6919;52.344;14.518;2023-08-12T05:15:33;3.03;;;2.30;;
13693;SDS011;6919;52.344;14.518;2023-08-12T05:18:03;2.57;;;1.97;;
13693;SDS011;6919;52.344;14.518;2023-08-12T05:20:32;2.67;;;2.47;;
13693;SDS011;6919;52.344;14.518;2023-08-12T05:23:01;2.67;;;2.03;;
13693;SDS011;6919;52.344;14.518;2023-08-12T05:25:30;2.33;;;2.13;;
13693;SDS011;6919;52.344;14.518;2023-08-12T05:27:58;2.37;;;1.90;;
13693;SDS011;6919;52.344;14.518;2023-08-12T05:30:27;4.23;;;2.40;;
13693;SDS011;6919;52.344;14.518;2023-08-12T05:32:55;3.77;;;2.30;;
13693;SDS011;6919;52.344;14.518;2023-08-12T05:35:24;2.60;;;2.20;;
13693;SDS011;6919;52.344;14.518;2023-08-12T05:37:53;4.50;;;2.40;;
13693;SDS011;6919;52.344;14.518;2023-08-12T05:40:21;2.17;;;1.97;;
13693;SDS011;6919;52.344;14.518;2023-08-12T05:42:51;3.40;;;2.33;;
13693;SDS011;6919;52.344;14.518;2023-08-12T05:45:19;2.67;;;2.00;;
13693;SDS011;6919;52.344;14.518;2023-08-12T05:47:48;2.77;;;2.23;;
13693;SDS011;6919;52.344;14.518;2023-08-12T05:50:16;2.17;;;1.87;;
13693;SDS011;6919;52.344;14.518;2023-08-12T05:52:44;6.23;;;2.60;;
13693;SDS011;6919;52.344;14.518;2023-08-12T05:55:13;3.07;;;2.40;;
13693;SDS011;6919;52.344;14.518;2023-08-12T05:57:41;3.27;;;2.37;;
13693;SDS011;6919;52.344;14.518;2023-08-12T06:00:11;2.30;;;2.10;;
13693;SDS011;6919;52.344;14.518;2023-08-12T06:02:40;3.33;;;2.17;;
13693;SDS011;6919;52.344;14.518;2023-08-12T06:05:08;2.90;;;2.43;;
13693;SDS011;6919;52.344;14.518;2023-08-12T06:07:36;6.13;;;2.40;;
13693;SDS011;6919;52.344;14.518;2023-08-12T06:10:05;4.17;;;2.40;;
13693;SDS011;6919;52.344;14.518;2023-08-12T06:12:34;2.37;;;2.00;;
13693;SDS011;6919;52.344;14.518;2023-08-12T06:15:03;2.80;;;2.20;;
13693;SDS011;6919;52.344;14.518;2023-08-12T06:17:33;3.13;;;1.93;;
13693;SDS011;6919;52.344;14.518;2023-08-12T06:20:02;2.70;;;2.17;;
13693;SDS011;6919;52.344;14.518;2023-08-12T06:22:30;3.20;;;2.40;;
13693;SDS011;6919;52.344;14.518;2023-08-12T06:24:59;2.50;;;2.30;;
13693;SDS011;6919;52.344;14.518;2023-08-12T06:27:27;2.17;;;1.97;;
13693;SDS011;6919;52.344;14.518;2023-08-12T06:29:55;4.00;;;1.90;;
13693;SDS011;6919;52.344;14.518;2023-08-12T06:32:23;7.90;;;2.53;;
13693;SDS011;6919;52.344;14.518;2023-08-12T06:34:53;2.77;;;2.37;;
13693;SDS011;6919;52.344;14.518;2023-08-12T06:37:21;3.73;;;2.50;;
13693;SDS011;6919;52.344;14.518;2023-08-12T06:39:50;2.57;;;2.37;;
13693;SDS011;6919;52.344;14.518;2023-08-12T06:42:18;2.57;;;2.37;;
13693;SDS011;6919;52.344;14.518;2023-08-12T06:44:49;2.50;;;2.27;;
13693;SDS011;6919;52.344;14.518;2023-08-12T06:47:22;2.13;;;1.87;;
13693;SDS011;6919;52.344;14.518;2023-08-12T06:49:50;2.07;;;1.90;;
13693;SDS011;6919;52.344;14.518;2023-08-12T06:52:20;2.63;;;2.43;;
13693;SDS011;6919;52.344;14.518;2023-08-12T06:54:48;3.23;;;2.10;;
13693;SDS011;6919;52.344;14.518;2023-08-12T06:57:17;4.10;;;2.60;;
13693;SDS011;6919;52.344;14.518;2023-08-12T06:59:45;2.33;;;1.87;;
13693;SDS011;6919;52.344;14.518;2023-08-12T07:02:13;3.23;;;2.27;;
13693;SDS011;6919;52.344;14.518;2023-08-12T07:04:41;4.07;;;2.63;;
13693;SDS011;6919;52.344;14.518;2023-08-12T07:07:09;3.40;;;2.43;;
13693;SDS011;6919;52.344;14.518;2023-08-12T07:09:39;3.47;;;2.47;;
13693;SDS011;6919;52.344;14.518;2023-08-12T07:12:07;4.07;;;2.30;;
13693;SDS011;6919;52.344;14.518;2023-08-12T07:14:36;3.10;;;2.50;;
13693;SDS011;6919;52.344;14.518;2023-08-12T07:17:04;3.70;;;2.60;;
13693;SDS011;6919;52.344;14.518;2023-08-12T07:19:33;3.00;;;2.33;;
13693;SDS011;6919;52.344;14.518;2023-08-12T07:22:01;5.83;;;2.60;;
13693;SDS011;6919;52.344;14.518;2023-08-12T07:24:30;2.80;;;2.10;;
13693;SDS011;6919;52.344;14.518;2023-08-12T07:27:00;2.30;;;2.10;;
13693;SDS011;6919;52.344;14.518;2023-08-12T07:29:31;3.27;;;2.07;;
13693;SDS011;6919;52.344;14.518;2023-08-12T07:31:59;2.40;;;2.10;;
13693;SDS011;6919;52.344;14.518;2023-08-12T07:34:27;6.40;;;2.63;;
13693;SDS011;6919;52.344;14.518;2023-08-12T07:36:57;3.47;;;2.57;;
13693;SDS011;6919;52.344;14.518;2023-08-12T07:39:25;2.57;;;2.00;;
13693;SDS011;6919;52.344;14.518;2023-08-12T07:41:53;3.67;;;2.40;;
13693;SDS011;6919;52.344;14.518;2023-08-12T07:44:23;4.43;;;2.27;;
13693;SDS011;6919;52.344;14.518;2023-08-12T07:46:51;3.17;;;2.20;;
13693;SDS011;6919;52.344;14.518;2023-08-12T07:49:19;2.70;;;2.03;;
13693;SDS011;6919;52.344;14.518;2023-08-12T07:51:49;2.47;;;2.27;;
13693;SDS011;6919;52.344;14.518;2023-08-12T07:54:17;3.73;;;2.37;;
13693;SDS011;6919;52.344;14.518;2023-08-12T07:56:45;3.33;;;2.00;;
13693;SDS011;6919;52.344;14.518;2023-08-12T07:59:14;2.93;;;2.00;;
13693;SDS011;6919;52.344;14.518;2023-08-12T08:01:43;2.70;;;2.27;;
13693;SDS011;6919;52.344;14.518;2023-08-12T08:04:12;2.40;;;1.97;;
13693;SDS011;6919;52.344;14.518;2023-08-12T08:06:40;5.67;;;2.40;;
13693;SDS011;6919;52.344;14.518;2023-08-12T08:09:08;4.40;;;1.97;;
13693;SDS011;6919;52.344;14.518;2023-08-12T08:11:37;3.43;;;2.10;;
13693;SDS011;6919;52.344;14.518;2023-08-12T08:14:05;2.30;;;2.10;;
13693;SDS011;6919;52.344;14.518;2023-08-12T08:16:34;2.00;;;1.80;;
13693;SDS011;6919;52.344;14.518;2023-08-12T08:19:04;2.23;;;2.00;;
13693;SDS011;6919;52.344;14.518;2023-08-12T08:21:37;2.70;;;2.17;;
13693;SDS011;6919;52.344;14.518;2023-08-12T08:24:06;3.87;;;2.17;;
13693;SDS011;6919;52.344;14.518;2023-08-12T08:26:37;3.93;;;2.03;;
13693;SDS011;6919;52.344;14.518;2023-08-12T08:29:06;4.17;;;2.20;;
13693;SDS011;6919;52.344;14.518;2023-08-12T08:31:35;3.23;;;2.53;;
13693;SDS011;6919;52.344;14.518;2023-08-12T08:34:05;2.00;;;1.80;;
13693;SDS011;6919;52.344;14.518;2023-08-12T08:36:34;2.83;;;2.30;;
13693;SDS011;6919;52.344;14.518;2023-08-12T08:39:02;2.73;;;2.00;;
13693;SDS011;6919;52.344;14.518;2023-08-12T08:41:31;2.93;;;2.00;;
13693;SDS011;6919;52.344;14.518;2023-08-12T08:44:06;2.57;;;2.10;;
13693;SDS011;6919;52.344;14.518;2023-08-12T08:46:36;4.23;;;2.13;;
13693;SDS011;6919;52.344;14.518;2023-08-12T08:49:05;3.40;;;2.57;;
13693;SDS011;6919;52.344;14.518;2023-08-12T08:51:36;3.25;;;2.10;;
13693;SDS011;6919;52.344;14.518;2023-08-12T08:54:04;2.17;;;1.95;;
13693;SDS011;6919;52.344;14.518;2023-08-12T08:56:33;3.22;;;2.30;;
13693;SDS011;6919;52.344;14.518;2023-08-12T08:59:11;3.50;;;2.22;;
13693;SDS011;6919;52.344;14.518;2023-08-12T09:01:39;2.10;;;1.83;;
13693;SDS011;6919;52.344;14.518;2023-08-12T09:04:13;2.58;;;2.35;;
13693;SDS011;6919;52.344;14.518;2023-08-12T09:06:44;3.22;;;1.80;;
13693;SDS011;6919;52.344;14.518;2023-08-12T09:09:15;2.42;;;2.05;;
13693;SDS011;6919;52.344;14.518;2023-08-12T09:11:47;2.85;;;1.98;;
13693;SDS011;6919;52.344;14.518;2023-08-12T09:14:18;3.15;;;2.00;;
13693;SDS011;6919;52.344;14.518;2023-08-12T09:16:46;2.25;;;1.88;;
13693;SDS011;6919;52.344;14.518;2023-08-12T09:19:16;2.72;;;2.13;;
13693;SDS011;6919;52.344;14.518;2023-08-12T09:21:46;5.32;;;3.03;;
13693;SDS011;6919;52.344;14.518;2023-08-12T09:24:23;3.10;;;2.20;;
13693;SDS011;6919;52.344;14.518;2023-08-12T09:26:52;3.83;;;2.30;;
13693;SDS011;6919;52.344;14.518;2023-08-12T09:29:22;2.80;;;2.40;;
13693;SDS011;6919;52.344;14.518;2023-08-12T09:31:51;3.50;;;2.22;;
13693;SDS011;6919;52.344;14.518;2023-08-12T09:34:21;8.70;;;3.63;;
13693;SDS011;6919;52.344;14.518;2023-08-12T09:36:52;2.25;;;2.05;;
13693;SDS011;6919;52.344;14.518;2023-08-12T09:39:20;2.42;;;1.95;;
13693;SDS011;6919;52.344;14.518;2023-08-12T09:41:49;2.97;;;2.08;;
13693;SDS011;6919;52.344;14.518;2023-08-12T09:44:18;2.58;;;2.20;;
13693;SDS011;6919;52.344;14.518;2023-08-12T09:46:48;2.72;;;2.05;;
13693;SDS011;6919;52.344;14.518;2023-08-12T09:49:25;3.88;;;2.17;;
13693;SDS011;6919;52.344;14.518;2023-08-12T09:51:54;2.60;;;1.85;;
13693;SDS011;6919;52.344;14.518;2023-08-12T09:54:24;3.38;;;2.40;;
13693;SDS011;6919;52.344;14.518;2023-08-12T09:56:55;3.05;;;2.20;;
13693;SDS011;6919;52.344;14.518;2023-08-12T09:59:30;4.82;;;2.55;;
13693;SDS011;6919;52.344;14.518;2023-08-12T10:02:00;3.10;;;2.22;;
13693;SDS011;6919;52.344;14.518;2023-08-12T10:04:35;2.13;;;1.90;;
13693;SDS011;6919;52.344;14.518;2023-08-12T10:07:07;2.38;;;2.17;;
13693;SDS011;6919;52.344;14.518;2023-08-12T10:09:39;2.53;;;1.85;;
13693;SDS011;6919;52.344;14.518;2023-08-12T10:12:09;2.58;;;1.77;;
13693;SDS011;6919;52.344;14.518;2023-08-12T10:14:43;2.35;;;1.67;;
13693;SDS011;6919;52.344;14.518;2023-08-12T10:17:13;2.30;;;2.00;;
13693;SDS011;6919;52.344;14.518;2023-08-12T10:20:04;2.60;;;1.85;;
13693;SDS011;6919;52.344;14.518;2023-08-12T10:22:35;2.38;;;1.60;;
13693;SDS011;6919;52.344;14.518;2023-08-12T10:25:07;1.88;;;1.65;;
13693;SDS011;6919;52.344;14.518;2023-08-12T10:27:36;2.17;;;1.90;;
13693;SDS011;6919;52.344;14.518;2023-08-12T10:30:05;2.92;;;1.70;;
13693;SDS011;6919;52.344;14.518;2023-08-12T10:32:35;2.17;;;1.77;;
13693;SDS011;6919;52.344;14.518;2023-08-12T10:35:09;2.90;;;1.90;;
13693;SDS011;6919;52.344;14.518;2023-08-12T10:37:38;2.15;;;1.88;;
13693;SDS011;6919;52.344;14.518;2023-08-12T10:40:19;11.10;;;2.53;;
13693;SDS011;6919;52.344;14.518;2023-08-12T10:42:51;3.50;;;1.77;;
13693;SDS011;6919;52.344;14.518;2023-08-12T10:45:20;2.88;;;1.70;;
13693;SDS011;6919;52.344;14.518;2023-08-12T10:47:49;2.45;;;1.95;;
13693;SDS011;6919;52.344;14.518;2023-08-12T10:50:48;5.60;;;1.98;;
13693;SDS011;6919;52.344;14.518;2023-08-12T10:53:25;1.77;;;1.67;;
13693;SDS011;6919;52.344;14.518;2023-08-12T10:55:58;1.88;;;1.70;;
13693;SDS011;6919;52.344;14.518;2023-08-12T10:58:30;1.92;;;1.65;;
13693;SDS011;6919;52.344;14.518;2023-08-12T11:01:02;1.88;;;1.67;;
13693;SDS011;6919;52.344;14.518;2023-08-12T11:03:41;2.13;;;1.73;;
13693;SDS011;6919;52.344;14.518;2023-08-12T11:06:12;2.63;;;1.73;;
13693;SDS011;6919;52.344;14.518;2023-08-12T11:08:45;2.08;;;1.50;;
13693;SDS011;6919;52.344;14.518;2023-08-12T11:11:18;3.53;;;1.70;;
13693;SDS011;6919;52.344;14.518;2023-08-12T11:13:52;2.55;;;1.50;;
13693;SDS011;6919;52.344;14.518;2023-08-12T11:16:30;2.22;;;1.75;;
13693;SDS011;6919;52.344;14.518;2023-08-12T11:19:02;2.55;;;1.95;;
13693;SDS011;6919;52.344;14.518;2023-08-12T11:21:32;2.03;;;1.63;;
13693;SDS011;6919;52.344;14.518;2023-08-12T11:24:04;1.73;;;1.60;;
13693;SDS011;6919;52.344;14.518;2023-08-12T11:26:33;3.00;;;2.00;;
13693;SDS011;6919;52.344;14.518;2023-08-12T11:29:02;2.53;;;1.70;;
13693;SDS011;6919;52.344;14.518;2023-08-12T11:31:37;2.33;;;2.00;;
13693;SDS011;6919;52.344;14.518;2023-08-12T11:34:05;2.13;;;1.92;;
13693;SDS011;6919;52.344;14.518;2023-08-12T11:36:35;2.22;;;1.80;;
13693;SDS011;6919;52.344;14.518;2023-08-12T11:39:04;3.28;;;1.73;;
13693;SDS011;6919;52.344;14.518;2023-08-12T11:41:33;2.40;;;1.77;;
13693;SDS011;6919;52.344;14.518;2023-08-12T11:44:02;1.70;;;1.60;;
13693;SDS011;6919;52.344;14.518;2023-08-12T11:46:32;2.85;;;2.28;;
13693;SDS011;6919;52.344;14.518;2023-08-12T11:49:00;2.20;;;2.00;;
13693;SDS011;6919;52.344;14.518;2023-08-12T11:51:29;6.82;;;2.05;;
13693;SDS011;6919;52.344;14.518;2023-08-12T11:53:58;3.30;;;2.20;;
13693;SDS011;6919;52.344;14.518;2023-08-12T11:56:27;2.35;;;1.90;;
13693;SDS011;6919;52.344;14.518;2023-08-12T11:58:56;3.78;;;1.90;;
13693;SDS011;6919;52.344;14.518;2023-08-12T12:01:25;2.42;;;1.90;;
13693;SDS011;6919;52.344;14.518;2023-08-12T12:03:54;4.47;;;2.17;;
13693;SDS011;6919;52.344;14.518;2023-08-12T12:06:30;2.53;;;2.20;;
13693;SDS011;6919;52.344;14.518;2023-08-12T12:09:02;3.53;;;2.13;;
13693;SDS011;6919;52.344;14.518;2023-08-12T12:11:36;3.13;;;2.35;;
13693;SDS011;6919;52.344;14.518;2023-08-12T12:14:05;2.40;;;1.77;;
13693;SDS011;6919;52.344;14.518;2023-08-12T12:16:39;6.60;;;2.55;;
13693;SDS011;6919;52.344;14.518;2023-08-12T12:19:15;2.65;;;1.83;;
13693;SDS011;6919;52.344;14.518;2023-08-12T12:21:46;4.70;;;2.72;;
13693;SDS011;6919;52.344;14.518;2023-08-12T12:24:18;3.00;;;2.00;;
13693;SDS011;6919;52.344;14.518;2023-08-12T12:26:48;3.05;;;2.30;;
13693;SDS011;6919;52.344;14.518;2023-08-12T12:29:17;3.85;;;2.05;;
13693;SDS011;6919;52.344;14.518;2023-08-12T12:31:45;2.92;;;2.05;;
13693;SDS011;6919;52.344;14.518;2023-08-12T12:34:13;3.67;;;2.35;;
13693;SDS011;6919;52.344;14.518;2023-08-12T12:36:42;3.35;;;2.53;;
13693;SDS011;6919;52.344;14.518;2023-08-12T12:39:11;2.80;;;2.40;;
13693;SDS011;6919;52.344;14.518;2023-08-12T12:41:43;4.82;;;2.60;;
13693;SDS011;6919;52.344;14.518;2023-08-12T12:44:13;6.68;;;2.92;;
13693;SDS011;6919;52.344;14.518;2023-08-12T12:46:42;2.83;;;2.50;;
13693;SDS011;6919;52.344;14.518;2023-08-12T12:49:10;4.78;;;2.88;;
13693;SDS011;6919;52.344;14.518;2023-08-12T12:51:39;26.27;;;10.80;;
13693;SDS011;6919;52.344;14.518;2023-08-12T12:54:07;23.67;;;9.02;;
13693;SDS011;6919;52.344;14.518;2023-08-12T12:56:35;14.05;;;6.03;;
13693;SDS011;6919;52.344;14.518;2023-08-12T12:59:05;10.25;;;6.05;;
13693;SDS011;6919;52.344;14.518;2023-08-12T13:01:33;5.90;;;2.63;;
13693;SDS011;6919;52.344;14.518;2023-08-12T13:04:02;3.90;;;2.17;;
13693;SDS011;6919;52.344;14.518;2023-08-12T13:06:30;3.67;;;2.45;;
13693;SDS011;6919;52.344;14.518;2023-08-12T13:08:59;2.33;;;2.13;;
13693;SDS011;6919;52.344;14.518;2023-08-12T13:11:28;2.75;;;2.17;;
13693;SDS011;6919;52.344;14.518;2023-08-12T13:13:56;2.45;;;2.05;;
13693;SDS011;6919;52.344;14.518;2023-08-12T13:16:27;1.90;;;1.73;;
13693;SDS011;6919;52.344;14.518;2023-08-12T13:18:55;1.65;;;1.50;;
13693;SDS011;6919;52.344;14.518;2023-08-12T13:21:25;2.15;;;1.90;;
13693;SDS011;6919;52.344;14.518;2023-08-12T13:23:54;2.45;;;1.88;;
13693;SDS011;6919;52.344;14.518;2023-08-12T13:26:23;2.30;;;2.00;;
13693;SDS011;6919;52.344;14.518;2023-08-12T13:28:52;3.63;;;1.85;;
13693;SDS011;6919;52.344;14.518;2023-08-12T13:31:21;1.50;;;1.40;;
13693;SDS011;6919;52.344;14.518;2023-08-12T13:33:53;2.97;;;1.98;;
13693;SDS011;6919;52.344;14.518;2023-08-12T13:36:22;2.25;;;2.03;;
13693;SDS011;6919;52.344;14.518;2023-08-12T13:38:51;2.50;;;1.80;;
13693;SDS011;6919;52.344;14.518;2023-08-12T13:41:19;2.17;;;1.80;;
13693;SDS011;6919;52.344;14.518;2023-08-12T13:43:48;2.45;;;1.85;;
13693;SDS011;6919;52.344;14.518;2023-08-12T13:46:16;2.08;;;1.85;;
13693;SDS011;6919;52.344;14.518;2023-08-12T13:48:45;2.42;;;2.15;;
13693;SDS011;6919;52.344;14.518;2023-08-12T13:51:14;1.92;;;1.80;;
13693;SDS011;6919;52.344;14.518;2023-08-12T13:53:43;2.42;;;1.70;;
13693;SDS011;6919;52.344;14.518;2023-08-12T13:56:11;4.95;;;2.00;;
13693;SDS011;6919;52.344;14.518;2023-08-12T13:58:40;1.95;;;1.75;;
13693;SDS011;6919;52.344;14.518;2023-08-12T14:01:08;2.25;;;1.70;;
13693;SDS011;6919;52.344;14.518;2023-08-12T14:03:37;2.17;;;1.88;;
13693;SDS011;6919;52.344;14.518;2023-08-12T14:06:05;1.63;;;1.48;;
13693;SDS011;6919;52.344;14.518;2023-08-12T14:08:35;2.20;;;2.00;;
13693;SDS011;6919;52.344;14.518;2023-08-12T14:11:03;2.03;;;1.83;;
13693;SDS011;6919;52.344;14.518;2023-08-12T14:13:32;1.58;;;1.48;;
13693;SDS011;6919;52.344;14.518;2023-08-12T14:16:00;2.08;;;1.63;;
13693;SDS011;6919;52.344;14.518;2023-08-12T14:18:29;1.67;;;1.55;;
13693;SDS011;6919;52.344;14.518;2023-08-12T14:20:57;1.20;;;1.10;;
13693;SDS011;6919;52.344;14.518;2023-08-12T14:23:26;1.95;;;1.50;;
13693;SDS011;6919;52.344;14.518;2023-08-12T14:25:56;1.88;;;1.67;;
13693;SDS011;6919;52.344;14.518;2023-08-12T14:28:24;1.60;;;1.50;;
13693;SDS011;6919;52.344;14.518;2023-08-12T14:30:53;1.90;;;1.60;;
13693;SDS011;6919;52.344;14.518;2023-08-12T14:33:22;3.60;;;3.10;;
13693;SDS011;6919;52.344;14.518;2023-08-12T14:35:51;3.42;;;3.13;;
13693;SDS011;6919;52.344;14.518;2023-08-12T14:38:20;2.72;;;2.22;;
13693;SDS011;6919;52.344;14.518;2023-08-12T14:40:49;3.92;;;3.30;;
13693;SDS011;6919;52.344;14.518;2023-08-12T14:43:19;3.25;;;2.70;;
13693;SDS011;6919;52.344;14.518;2023-08-12T14:45:47;3.00;;;2.70;;
13693;SDS011;6919;52.344;14.518;2023-08-12T14:48:16;4.13;;;2.25;;
13693;SDS011;6919;52.344;14.518;2023-08-12T14:50:44;4.03;;;2.97;;
13693;SDS011;6919;52.344;14.518;2023-08-12T14:53:13;3.05;;;2.50;;
13693;SDS011;6919;52.344;14.518;2023-08-12T14:55:41;2.28;;;2.08;;
13693;SDS011;6919;52.344;14.518;2023-08-12T14:58:14;2.22;;;1.90;;
13693;SDS011;6919;52.344;14.518;2023-08-12T15:00:43;3.17;;;2.67;;
13693;SDS011;6919;52.344;14.518;2023-08-12T15:03:14;2.30;;;2.10;;